createdAt,value
2022-09-17T00:02:07.229Z,98090.63
2022-09-17T00:07:11.699Z,98099.44
2022-09-17T00:12:14.642Z,98096.81
2022-09-17T00:17:17.545Z,98103.91
2022-09-17T00:22:21.850Z,98096.09
2022-09-17T00:27:24.776Z,98103.19
2022-09-17T00:32:27.888Z,98094.75
2022-09-17T00:37:32.220Z,98096.34
2022-09-17T00:42:35.139Z,98098.66
2022-09-17T00:47:41.360Z,98092.63
2022-09-17T00:52:47.818Z,98079.25
2022-09-17T00:57:53.501Z,98084.50
2022-09-17T01:02:56.397Z,98076.78
2022-09-17T01:08:08.837Z,98086.00
2022-09-17T01:13:20.876Z,98083.88
2022-09-17T01:18:38.542Z,98081.25
2022-09-17T01:24:12.936Z,98070.28
2022-09-17T01:29:35.095Z,98062.94
2022-09-17T01:34:46.390Z,98073.22
2022-09-17T01:39:54.885Z,98079.72
2022-09-17T01:45:05.585Z,98073.28
2022-09-17T01:50:14.394Z,98084.09
2022-09-17T01:55:19.594Z,98085.22
2022-09-17T02:00:23.448Z,98084.97
2022-09-17T02:05:32.295Z,98089.34
2022-09-17T02:10:42.145Z,98082.53
2022-09-17T02:15:51.268Z,98082.84
2022-09-17T02:21:04.086Z,98084.50
2022-09-17T02:26:11.107Z,98081.88
2022-09-17T02:31:14.267Z,98088.63
2022-09-17T02:36:19.354Z,98091.09
2022-09-17T02:41:27.066Z,98082.53
2022-09-17T02:46:49.801Z,98076.78
2022-09-17T02:52:08.048Z,98083.31
2022-09-17T02:57:22.189Z,98082.97
2022-09-17T03:02:29.893Z,98083.63
2022-09-17T03:07:34.298Z,98079.81
2022-09-17T03:12:37.774Z,98076.47
2022-09-17T03:17:40.704Z,98072.97
2022-09-17T03:22:44.955Z,98079.00
2022-09-17T03:27:48.328Z,98086.00
2022-09-17T03:32:51.250Z,98086.88
2022-09-17T03:37:55.503Z,98080.06
2022-09-17T03:42:58.405Z,98086.19
2022-09-17T03:48:01.383Z,98088.94
2022-09-17T03:53:06.249Z,98105.81
2022-09-17T03:58:09.508Z,98095.31
2022-09-17T04:03:12.720Z,98107.81
2022-09-17T04:08:17.132Z,98110.88
2022-09-17T04:13:20.439Z,98117.00
2022-09-17T04:18:23.338Z,98110.56
2022-09-17T04:23:27.662Z,98121.06
2022-09-17T04:28:30.545Z,98115.25
2022-09-17T04:33:33.443Z,98108.44
2022-09-17T04:38:37.691Z,98112.47
2022-09-17T04:43:40.639Z,98107.69
2022-09-17T04:48:43.560Z,98117.31
2022-09-17T04:53:47.860Z,98117.16
2022-09-17T04:58:50.751Z,98120.25
2022-09-17T05:03:53.644Z,98124.47
2022-09-17T05:08:57.929Z,98113.53
2022-09-17T05:14:00.975Z,98119.22
2022-09-17T05:19:04.187Z,98125.00
2022-09-17T05:24:08.886Z,98123.19
2022-09-17T05:29:11.764Z,98147.50
2022-09-17T05:34:14.696Z,98143.47
2022-09-17T05:39:20.798Z,98141.22
2022-09-17T05:44:25.947Z,98139.91
2022-09-17T05:49:28.854Z,98144.03
2022-09-17T05:54:33.167Z,98140.56
2022-09-17T05:59:36.298Z,98135.16
2022-09-17T06:04:39.206Z,98126.31
2022-09-17T06:09:43.458Z,98130.75
2022-09-17T06:14:46.568Z,98135.00
2022-09-17T06:19:49.496Z,98137.06
2022-09-17T06:24:53.758Z,98130.00
2022-09-17T06:29:56.654Z,98141.84
2022-09-17T06:34:59.583Z,98145.50
2022-09-17T06:40:04.645Z,98133.06
2022-09-17T06:45:12.100Z,98135.59
2022-09-17T06:50:17.524Z,98136.13
2022-09-17T06:55:22.313Z,98143.28
2022-09-17T07:00:25.305Z,98137.72
2022-09-17T07:05:30.585Z,98129.63
2022-09-17T07:10:34.842Z,98143.38
2022-09-17T07:15:37.782Z,98131.16
2022-09-17T07:20:40.708Z,98152.84
2022-09-17T07:25:44.954Z,98152.97
2022-09-17T07:30:48.225Z,98157.66
2022-09-17T07:35:54.895Z,98168.22
2022-09-17T07:41:00.985Z,98174.97
2022-09-17T07:46:05.823Z,98172.25
2022-09-17T07:51:08.790Z,98181.22
2022-09-17T07:56:13.157Z,98185.97
2022-09-17T08:01:17.289Z,98194.69
2022-09-17T08:06:22.857Z,98211.19
2022-09-17T08:16:52.068Z,98217.34
2022-09-17T08:21:54.962Z,98215.53
2022-09-17T08:26:59.237Z,98219.59
2022-09-17T08:32:02.166Z,98229.06
2022-09-17T08:37:05.177Z,98236.28
2022-09-17T08:42:18.366Z,98243.94
2022-09-17T08:47:26.113Z,98243.50
2022-09-17T08:52:57.714Z,98244.31
2022-09-17T08:58:21.655Z,98239.53
2022-09-17T09:03:38.240Z,98241.28
2022-09-17T09:08:44.255Z,98231.91
2022-09-17T09:13:52.658Z,98237.75
2022-09-17T09:18:56.719Z,98230.22
2022-09-17T09:24:11.371Z,98234.19
2022-09-17T09:29:29.937Z,98241.72
2022-09-17T09:34:36.087Z,98257.09
2022-09-17T09:39:45.938Z,98257.38
2022-09-17T09:44:50.979Z,98255.34
2022-09-17T09:51:01.915Z,98249.41
2022-09-17T09:56:16.499Z,98246.25
2022-09-17T10:01:21.520Z,98240.06
2022-09-17T10:06:29.758Z,98252.75
2022-09-17T10:11:34.220Z,98241.22
2022-09-17T10:16:37.236Z,98249.47
2022-09-17T10:21:43.627Z,98265.44
2022-09-17T10:26:46.649Z,98267.81
2022-09-17T10:31:51.345Z,98258.72
2022-09-17T10:36:57.303Z,98272.63
2022-09-17T10:42:01.956Z,98267.91
2022-09-17T10:47:09.081Z,98260.91
2022-09-17T10:52:24.728Z,98272.81
2022-09-17T10:57:42.112Z,98270.72
2022-09-17T11:03:21.367Z,98258.00
2022-09-17T11:08:34.727Z,98245.47
2022-09-17T11:13:46.349Z,98264.16
2022-09-17T11:18:57.833Z,98261.69
2022-09-17T11:24:36.145Z,98247.25
2022-09-17T11:29:58.256Z,98239.63
2022-09-17T11:35:04.775Z,98235.66
2022-09-17T11:40:16.768Z,98238.03
2022-09-17T11:45:26.309Z,98271.00
2022-09-17T11:50:33.610Z,98281.56
2022-09-17T11:55:41.336Z,98280.16
2022-09-17T12:00:52.260Z,98273.13
2022-09-17T12:05:58.588Z,98277.16
2022-09-17T12:11:07.485Z,98268.56
2022-09-17T12:16:17.700Z,98265.28
2022-09-17T12:21:25.817Z,98256.63
2022-09-17T12:26:39.591Z,98248.09
2022-09-17T12:31:52.287Z,98253.97
2022-09-17T12:37:03.220Z,98251.38
2022-09-17T12:42:15.765Z,98245.44
2022-09-17T12:47:50.437Z,98235.19
2022-09-17T12:53:05.258Z,98225.44
2022-09-17T12:58:21.132Z,98207.25
2022-09-17T13:03:30.606Z,98221.75
2022-09-17T13:09:05.176Z,98206.16
2022-09-17T13:14:19.339Z,98204.28
2022-09-17T13:19:33.900Z,98221.25
2022-09-17T13:24:38.369Z,98231.00
2022-09-17T13:30:01.885Z,98222.19
2022-09-17T13:40:37.661Z,98218.31
2022-09-17T13:46:12.400Z,98204.81
2022-09-17T13:51:54.410Z,98203.25
2022-09-17T13:57:15.699Z,98208.78
2022-09-17T14:02:31.648Z,98199.38
2022-09-17T14:07:36.694Z,98194.91
2022-09-17T14:12:56.489Z,98186.66
2022-09-17T14:17:59.479Z,98188.75
2022-09-17T14:23:03.996Z,98171.34
2022-09-17T14:28:16.178Z,98177.88
2022-09-17T14:33:26.249Z,98181.34
2022-09-17T14:38:34.201Z,98177.53
2022-09-17T14:43:45.154Z,98179.94
2022-09-17T14:48:48.070Z,98179.97
2022-09-17T14:54:09.968Z,98178.06
2022-09-17T14:59:23.789Z,98175.97
2022-09-17T15:04:28.055Z,98166.69
2022-09-17T15:09:30.956Z,98155.91
2022-09-17T15:14:39.843Z,98150.50
2022-09-17T15:19:46.151Z,98141.28
2022-09-17T15:24:54.214Z,98140.22
2022-09-17T15:30:03.157Z,98149.19
2022-09-17T15:35:28.321Z,98152.59
2022-09-17T15:40:34.180Z,98154.91
2022-09-17T15:45:39.936Z,98157.31
2022-09-17T15:50:53.055Z,98166.00
2022-09-17T15:56:06.116Z,98159.16
2022-09-17T16:01:42.214Z,98168.53
2022-09-17T16:07:01.384Z,98174.81
2022-09-17T16:12:04.315Z,98167.38
2022-09-17T16:17:21.420Z,98168.41
2022-09-17T16:22:26.357Z,98167.88
2022-09-17T16:27:33.741Z,98163.63
2022-09-17T16:32:36.691Z,98169.88
2022-09-17T16:37:41.077Z,98162.97
2022-09-17T16:42:44.023Z,98174.53
2022-09-17T16:47:47.174Z,98184.94
2022-09-17T16:52:51.495Z,98184.31
2022-09-17T16:57:54.415Z,98199.47
2022-09-17T17:02:58.786Z,98194.78
2022-09-17T17:08:06.707Z,98196.00
2022-09-17T17:13:09.907Z,98198.56
2022-09-17T17:18:12.914Z,98194.84
2022-09-17T17:23:17.563Z,98195.31
2022-09-17T17:28:20.501Z,98203.84
2022-09-17T17:33:23.619Z,98210.28
2022-09-17T17:38:28.427Z,98217.47
2022-09-17T17:43:31.404Z,98222.84
2022-09-17T17:48:34.393Z,98236.50
2022-09-17T17:53:39.483Z,98239.53
2022-09-17T17:58:42.464Z,98247.00
2022-09-17T18:03:45.441Z,98249.25
2022-09-17T18:08:49.754Z,98260.06
2022-09-17T18:13:53.717Z,98265.44
2022-09-17T18:18:58.072Z,98269.31
2022-09-17T18:24:03.075Z,98259.06
2022-09-17T18:29:08.244Z,98265.28
2022-09-17T18:34:14.097Z,98255.97
2022-09-17T18:39:57.551Z,98252.66
2022-09-17T18:44:41.485Z,98259.44
2022-09-17T18:49:44.409Z,98263.22
2022-09-17T18:54:48.741Z,98256.28
2022-09-17T18:59:52.072Z,98261.66
2022-09-17T19:04:54.990Z,98259.41
2022-09-17T19:10:00.752Z,98273.88
2022-09-17T19:15:03.942Z,98268.16
2022-09-17T19:20:07.638Z,98273.72
2022-09-17T19:25:12.215Z,98265.63
2022-09-17T19:30:15.332Z,98277.03
2022-09-17T19:35:18.583Z,98269.25
2022-09-17T19:40:22.967Z,98269.59
2022-09-17T19:45:26.876Z,98273.38
2022-09-17T19:50:29.983Z,98267.38
2022-09-17T19:55:34.257Z,98260.13
2022-09-17T20:00:37.534Z,98257.06
2022-09-17T20:05:40.641Z,98257.97
2022-09-17T20:10:44.942Z,98274.53
2022-09-17T20:15:47.930Z,98272.22
2022-09-17T20:20:50.866Z,98269.97
2022-09-17T20:25:55.207Z,98263.03
2022-09-17T20:31:02.768Z,98265.72
2022-09-17T20:36:09.169Z,98260.63
2022-09-17T20:41:15.669Z,98257.44
2022-09-17T20:46:21.131Z,98265.72
2022-09-17T20:51:27.814Z,98261.84
2022-09-17T20:56:34.256Z,98244.69
2022-09-17T21:01:38.346Z,98232.16
2022-09-17T21:06:43.005Z,98232.84
2022-09-17T21:11:49.011Z,98231.69
2022-09-17T21:16:51.979Z,98230.09
2022-09-17T21:21:56.297Z,98226.00
2022-09-17T21:27:00.575Z,98245.44
2022-09-17T21:32:03.590Z,98240.00
2022-09-17T21:37:06.545Z,98241.13
2022-09-17T21:42:10.830Z,98237.84
2022-09-17T21:47:13.741Z,98232.84
2022-09-17T21:52:16.673Z,98221.00
2022-09-17T21:57:20.989Z,98230.31
2022-09-17T22:02:24.512Z,98227.81
2022-09-17T22:07:27.505Z,98229.53
2022-09-17T22:12:31.773Z,98232.13
2022-09-17T22:17:34.715Z,98230.06
2022-09-17T22:22:37.700Z,98229.84
2022-09-17T22:27:50.290Z,98212.16
2022-09-17T22:33:01.849Z,98207.38
2022-09-17T22:38:04.769Z,98202.44
2022-09-17T22:43:09.035Z,98202.03
2022-09-17T22:48:11.964Z,98200.47
2022-09-17T22:53:14.969Z,98208.50
2022-09-17T22:58:21.728Z,98212.94
2022-09-17T23:03:27.664Z,98203.59
2022-09-17T23:08:30.651Z,98202.69
2022-09-17T23:13:35.390Z,98208.81
2022-09-17T23:18:38.372Z,98215.28
2022-09-17T23:23:42.560Z,98210.34
2022-09-17T23:28:47.736Z,98193.66
2022-09-17T23:33:51.093Z,98206.50
2022-09-17T23:38:55.695Z,98192.50
2022-09-17T23:44:01.356Z,98194.84
2022-09-17T23:49:05.707Z,98182.88
2022-09-17T23:54:08.599Z,98188.13
2022-09-17T23:59:13.068Z,98184.38
